Terminal Aerodrome Forecast
Issued by NWS

Home | Current Version | Previous Version | Text Only | Print | Product List | Glossary Off
Versions: 1 2 3 4 5 6 7 8 9 10 11 12 13 14 15 16 17 18 19 20 21

000
FTUS43 KICT 021120
TAFSLN
TAF
KSLN 021120Z 0212/0312 13005KT P6SM OVC250
     FM021700 17017G25KT P6SM BKN200
     FM022300 17018G26KT P6SM OVC020
     FM030200 17018G25KT 4SM BR OVC008=

USA.gov is the U.S. government's official web portal to all federal, state and local government web resources and services.